Time;durP1;ratioP1;P1;durP2;ratioP2;P2;SDS_P1;SDS_P2;PMS_P1;PMS_P2;Temp;Humidity;BMP_temperature;BMP_pressure;BME280_temperature;BME280_humidity;BME280_pressure;Samples;Min_cycle;Max_cycle;Signal;HPM_P1;HPM_P2
2021/07/12 00:00:52;;;;;;;9.88;8.45;;;;;;;18.81;81.33;97635.13;1712220;82;21017;-76
2021/07/12 00:03:21;;;;;;;11.43;9.63;;;;;;;18.71;81.14;97631.73;1738267;82;21048;-76
2021/07/12 00:05:47;;;;;;;10.68;9.50;;;;;;;18.62;81.87;97639.08;1663256;85;21006;-76
2021/07/12 00:08:14;;;;;;;11.60;9.93;;;;;;;18.54;82.40;97632.89;1709804;82;20938;-76
2021/07/12 00:10:40;;;;;;;13.88;9.70;;;;;;;18.48;81.98;97633.32;1709445;84;21017;-76
2021/07/12 00:13:07;;;;;;;11.73;10.53;;;;;;;18.42;81.73;97639.95;1714427;82;20949;-77
2021/07/12 00:15:34;;;;;;;12.20;10.80;;;;;;;18.34;82.18;97640.47;1729021;83;21060;-76
2021/07/12 00:18:00;;;;;;;14.85;9.75;;;;;;;18.32;81.99;97635.67;1734308;82;20982;-76
2021/07/12 00:20:28;;;;;;;10.85;9.58;;;;;;;18.26;82.30;97628.55;1730848;82;21463;-76
2021/07/12 00:22:57;;;;;;;10.58;9.20;;;;;;;18.24;82.42;97635.35;1738317;82;21000;-76
2021/07/12 00:25:26;;;;;;;9.65;8.75;;;;;;;18.20;82.41;97631.15;1738735;82;21017;-76
2021/07/12 00:27:53;;;;;;;9.25;8.35;;;;;;;18.16;82.16;97643.91;1738872;82;21013;-77
2021/07/12 00:30:22;;;;;;;10.45;8.25;;;;;;;18.12;81.76;97646.41;1724137;82;21033;-77
2021/07/12 00:32:51;;;;;;;10.32;8.60;;;;;;;18.07;81.59;97636.47;1741542;82;21013;-77
2021/07/12 00:35:18;;;;;;;13.68;8.65;;;;;;;17.99;81.60;97630.25;1740915;82;21045;-77
2021/07/12 00:37:45;;;;;;;11.63;8.88;;;;;;;17.95;81.90;97626.88;1659719;85;21006;-77
2021/07/12 00:40:16;;;;;;;9.60;8.60;;;;;;;17.91;81.70;97626.73;1711855;84;21474;-77
2021/07/12 00:42:44;;;;;;;9.80;8.80;;;;;;;17.88;81.25;97628.27;1711911;84;21017;-77
2021/07/12 00:45:16;;;;;;;9.88;8.43;;;;;;;17.85;81.40;97628.95;1711843;84;21080;-78
2021/07/12 00:47:43;;;;;;;10.85;9.25;;;;;;;17.86;81.51;97626.14;1724665;82;20977;-77
2021/07/12 00:50:11;;;;;;;11.28;8.28;;;;;;;17.88;81.73;97626.05;1742873;82;21021;-77
2021/07/12 00:52:38;;;;;;;11.68;8.60;;;;;;;17.89;82.25;97628.63;1721079;82;20985;-78
2021/07/12 00:55:13;;;;;;;10.38;8.63;;;;;;;17.91;82.42;97629.87;1703745;84;21049;-77
2021/07/12 00:57:42;;;;;;;10.95;8.43;;;;;;;17.94;82.89;97623.83;1732539;82;21097;-77
2021/07/12 01:00:12;;;;;;;8.80;7.90;;;;;;;17.97;83.11;97624.11;1678921;85;21019;-77
2021/07/12 01:02:39;;;;;;;10.78;8.83;;;;;;;17.98;82.57;97618.28;1682148;85;21062;-77
2021/07/12 01:05:13;;;;;;;9.23;7.75;;;;;;;17.98;82.44;97623.14;1657752;85;20971;-77
2021/07/12 01:07:41;;;;;;;11.63;8.18;;;;;;;18.02;82.39;97628.69;1654689;86;21516;-77
2021/07/12 01:10:11;;;;;;;9.08;8.15;;;;;;;18.04;83.14;97624.56;1654674;87;21038;-77
2021/07/12 01:13:16;;;;;;;8.95;8.05;;;;;;;18.02;83.39;97630.02;1654561;87;21035;-77
2021/07/12 01:16:15;;;;;;;9.38;7.90;;;;;;;17.94;83.21;97627.85;1654757;87;21090;-77
2021/07/12 01:19:07;;;;;;;9.30;7.87;;;;;;;17.89;82.58;97630.48;1654815;85;21010;-77
2021/07/12 01:22:03;;;;;;;10.68;8.25;;;;;;;17.84;82.63;97632.56;1655851;85;21056;-77
2021/07/12 01:25:28;;;;;;;9.20;8.30;;;;;;;17.73;82.72;97631.45;1669406;85;20998;-77
2021/07/12 01:28:12;;;;;;;14.73;9.70;;;;;;;17.62;84.44;97636.19;1718090;82;20946;-77
2021/07/12 01:31:12;;;;;;;10.82;9.70;;;;;;;17.54;82.91;97638.02;1729561;82;20990;-77
2021/07/12 01:34:03;;;;;;;11.38;10.10;;;;;;;17.48;83.45;97638.89;1741943;82;21451;-77
2021/07/12 01:36:58;;;;;;;13.68;10.68;;;;;;;17.33;86.25;97639.37;1727546;82;20993;-77
2021/07/12 01:39:33;;;;;;;12.53;11.22;;;;;;;17.24;86.06;97640.31;1713444;84;21065;-76
2021/07/12 01:42:25;;;;;;;13.80;10.45;;;;;;;17.21;85.14;97644.55;1712075;84;21458;-76
2021/07/12 01:45:03;;;;;;;12.75;10.75;;;;;;;17.13;84.55;97643.69;1713675;84;20954;-76
2021/07/12 01:47:43;;;;;;;15.38;11.63;;;;;;;17.09;85.89;97639.94;1727318;82;21057;-77
2021/07/12 01:50:24;;;;;;;13.60;12.28;;;;;;;17.08;86.31;97638.23;1679115;85;21016;-76
2021/07/12 01:53:18;;;;;;;13.13;11.73;;;;;;;17.06;85.24;97634.80;1650200;86;21495;-76
2021/07/12 01:55:58;;;;;;;13.28;11.65;;;;;;;17.06;85.28;97632.96;1678125;85;21001;-76
2021/07/12 01:58:49;;;;;;;15.05;11.83;;;;;;;17.03;85.48;97643.84;1743154;82;21021;-76
2021/07/12 02:01:21;;;;;;;14.38;11.43;;;;;;;17.02;85.03;97641.63;1678996;85;21065;-80
2021/07/12 02:03:50;;;;;;;15.48;11.12;;;;;;;17.02;87.50;97644.78;1707520;84;21050;-81
2021/07/12 02:06:20;;;;;;;12.88;10.10;;;;;;;17.02;86.78;97646.98;1705790;84;21045;-80
2021/07/12 02:08:51;;;;;;;12.65;11.08;;;;;;;17.01;87.73;97645.27;1707062;84;21013;-80
2021/07/12 02:11:20;;;;;;;11.05;9.93;;;;;;;17.01;86.63;97643.06;1689847;84;21009;-78
2021/07/12 02:13:50;;;;;;;11.20;9.68;;;;;;;16.99;87.02;97644.98;1713332;82;21076;-79
2021/07/12 02:16:21;;;;;;;12.95;10.10;;;;;;;17.02;86.66;97649.66;1727239;82;21013;-79
2021/07/12 02:18:50;;;;;;;11.70;10.00;;;;;;;17.02;87.06;97647.45;1709007;82;20957;-78
2021/07/12 02:21:23;;;;;;;14.00;9.78;;;;;;;16.99;86.92;97636.95;1739339;82;21005;-78
2021/07/12 02:23:53;;;;;;;12.55;10.90;;;;;;;16.98;86.99;97644.11;1679044;85;20983;-79
2021/07/12 02:26:22;;;;;;;16.87;15.03;;;;;;;16.99;87.40;97639.13;1681348;85;21073;-79
2021/07/12 02:28:51;;;;;;;18.82;15.58;;;;;;;17.00;87.37;97643.56;1742904;82;20985;-79
2021/07/12 02:31:18;;;;;;;16.50;12.88;;;;;;;17.03;87.39;97647.86;1743180;82;21041;-79
2021/07/12 02:33:45;;;;;;;17.30;12.50;;;;;;;17.04;88.61;97648.27;1686836;84;21017;-79
2021/07/12 02:36:13;;;;;;;15.80;12.95;;;;;;;17.06;87.71;97646.84;1718804;82;21021;-79
2021/07/12 02:38:41;;;;;;;14.53;11.12;;;;;;;17.07;87.70;97650.73;1687050;85;20936;-79
2021/07/12 02:41:11;;;;;;;12.43;9.93;;;;;;;17.10;87.28;97650.56;1643420;85;21438;-79
2021/07/12 02:43:39;;;;;;;10.75;9.65;;;;;;;17.12;87.26;97643.78;1721342;82;21418;-79
2021/07/12 02:46:06;;;;;;;9.73;8.78;;;;;;;17.15;87.09;97643.09;1737967;82;21530;-79
2021/07/12 02:48:34;;;;;;;10.63;9.03;;;;;;;17.17;86.86;97648.83;1686581;85;21043;-79
2021/07/12 02:51:05;;;;;;;10.68;8.10;;;;;;;17.12;86.40;97654.48;1711617;83;20985;-78
2021/07/12 02:53:35;;;;;;;11.68;9.03;;;;;;;17.02;85.94;97655.02;1750878;82;21005;-78
2021/07/12 02:56:02;;;;;;;13.40;8.90;;;;;;;16.98;85.49;97658.84;1750812;82;21435;-78
2021/07/12 02:58:31;;;;;;;9.45;8.45;;;;;;;16.94;85.76;97659.97;1750884;82;21076;-78
2021/07/12 03:00:58;;;;;;;11.70;8.80;;;;;;;16.80;85.89;97655.47;1741977;82;21056;-78
2021/07/12 03:03:26;;;;;;;11.40;9.43;;;;;;;16.73;86.28;97658.15;1721048;83;21064;-79
2021/07/12 03:05:58;;;;;;;10.48;9.38;;;;;;;16.65;85.81;97657.73;1750791;82;21057;-78
2021/07/12 03:08:34;;;;;;;10.77;9.67;;;;;;;16.57;85.00;97656.37;1743934;82;20993;-79
2021/07/12 03:11:07;;;;;;;13.35;10.78;;;;;;;16.48;86.29;97652.89;1750762;82;21056;-78
2021/07/12 03:13:54;;;;;;;13.68;11.18;;;;;;;16.43;86.54;97657.66;1686761;85;21410;-78
2021/07/12 03:16:25;;;;;;;12.73;10.98;;;;;;;16.41;86.62;97662.25;1715336;83;21018;-78
2021/07/12 03:19:03;;;;;;;12.18;10.98;;;;;;;16.33;86.69;97667.56;1690588;83;21418;-78
2021/07/12 03:21:30;;;;;;;13.08;10.70;;;;;;;16.24;88.89;97661.44;1714585;84;21002;-78
2021/07/12 03:24:01;;;;;;;13.53;10.88;;;;;;;16.19;88.25;97662.19;1687084;84;21029;-78
2021/07/12 03:26:31;;;;;;;14.53;10.63;;;;;;;16.15;88.72;97662.81;1708835;83;21049;-79
2021/07/12 03:28:59;;;;;;;12.05;10.43;;;;;;;16.10;88.02;97663.55;1694325;84;21408;-79
2021/07/12 03:31:30;;;;;;;15.83;10.28;;;;;;;16.11;88.47;97663.94;1686730;85;20988;-78
2021/07/12 03:33:58;;;;;;;14.90;10.35;;;;;;;16.16;87.76;97666.36;1682258;84;21062;-78
2021/07/12 03:36:31;;;;;;;11.85;10.40;;;;;;;16.20;87.77;97663.41;1679223;85;21041;-79
2021/07/12 03:39:01;;;;;;;14.85;10.40;;;;;;;16.26;88.62;97668.88;1679037;85;21515;-78
2021/07/12 03:41:30;;;;;;;11.73;9.75;;;;;;;16.30;89.35;97665.55;1675568;85;20993;-78
2021/07/12 03:44:01;;;;;;;10.68;9.58;;;;;;;16.36;88.42;97666.05;1678998;85;21022;-79
2021/07/12 03:46:27;;;;;;;12.73;10.00;;;;;;;16.44;89.32;97672.78;1679046;85;21005;-79
2021/07/12 03:48:54;;;;;;;12.50;9.85;;;;;;;16.49;88.34;97677.37;1679183;85;21431;-79
2021/07/12 03:51:25;;;;;;;11.00;9.90;;;;;;;16.55;88.43;97674.34;1686727;84;21482;-79
2021/07/12 03:53:55;;;;;;;13.58;10.23;;;;;;;16.61;87.89;97669.95;1681226;84;21437;-78
2021/07/12 03:56:23;;;;;;;13.18;9.38;;;;;;;16.70;87.77;97673.88;1706627;82;21026;-78
2021/07/12 03:58:50;;;;;;;10.70;9.18;;;;;;;16.78;87.62;97673.45;1715262;84;20946;-79
2021/07/12 04:01:19;;;;;;;11.70;9.53;;;;;;;16.86;87.30;97669.81;1715725;84;21022;-78
2021/07/12 04:03:46;;;;;;;11.22;9.30;;;;;;;16.92;87.15;97672.60;1719925;83;20985;-79
2021/07/12 04:06:13;;;;;;;11.95;9.45;;;;;;;16.94;87.34;97673.36;1721368;83;21457;-79
2021/07/12 04:08:39;;;;;;;11.60;9.95;;;;;;;16.95;86.93;97663.05;1720256;82;20970;-79
2021/07/12 04:11:06;;;;;;;11.22;9.18;;;;;;;17.02;86.81;97668.87;1715791;84;21115;-79
2021/07/12 04:13:32;;;;;;;13.38;10.72;;;;;;;17.05;86.87;97673.20;1715605;83;21022;-79
2021/07/12 04:15:59;;;;;;;15.90;10.90;;;;;;;17.09;86.59;97672.94;1706209;82;21723;-78
2021/07/12 04:18:26;;;;;;;14.45;10.58;;;;;;;17.10;86.47;97671.98;1714590;82;21001;-78
2021/07/12 04:20:52;;;;;;;12.10;10.80;;;;;;;17.13;86.06;97669.59;1713878;82;20979;-78
2021/07/12 04:23:19;;;;;;;11.75;10.63;;;;;;;17.12;86.52;97670.55;1713424;84;21420;-79
2021/07/12 04:25:46;;;;;;;13.98;11.25;;;;;;;17.13;85.91;97667.78;1718378;82;21005;-79
2021/07/12 04:28:12;;;;;;;13.43;11.85;;;;;;;17.14;85.90;97664.61;1707214;84;21451;-79
2021/07/12 04:30:39;;;;;;;14.95;10.98;;;;;;;17.14;86.71;97669.50;1742985;82;21426;-78
2021/07/12 04:33:05;;;;;;;13.15;11.65;;;;;;;17.17;85.70;97664.43;1742279;82;21326;-77
2021/07/12 04:35:33;;;;;;;12.25;10.72;;;;;;;17.19;85.54;97655.81;1715663;82;21005;-78
2021/07/12 04:38:00;;;;;;;13.65;11.43;;;;;;;17.25;85.85;97662.15;1667500;85;21412;-79
2021/07/12 04:40:27;;;;;;;12.35;11.05;;;;;;;17.29;85.14;97661.47;1737646;82;21002;-79
2021/07/12 04:42:53;;;;;;;13.08;11.40;;;;;;;17.30;85.61;97655.15;1733528;82;20996;-79
2021/07/12 04:45:20;;;;;;;12.18;10.13;;;;;;;17.34;85.30;97663.38;1735064;82;21006;-79
2021/07/12 04:47:48;;;;;;;11.95;10.00;;;;;;;17.39;85.20;97651.02;1738560;82;20989;-78
2021/07/12 04:50:15;;;;;;;13.40;10.43;;;;;;;17.45;84.95;97647.11;1738115;82;21002;-78
2021/07/12 04:52:41;;;;;;;16.17;11.12;;;;;;;17.49;85.09;97653.53;1738877;82;21013;-78
2021/07/12 04:55:10;;;;;;;11.55;10.35;;;;;;;17.53;85.37;97653.69;1730944;82;20986;-78
2021/07/12 04:57:37;;;;;;;12.85;10.75;;;;;;;17.58;85.00;97651.20;1734887;82;21395;-79
2021/07/12 05:00:09;;;;;;;12.18;10.90;;;;;;;17.63;84.92;97654.44;1738703;82;21415;-78
2021/07/12 05:02:38;;;;;;;12.10;10.90;;;;;;;17.69;84.84;97655.41;1691541;85;21069;-78
2021/07/12 05:05:10;;;;;;;12.58;10.15;;;;;;;17.75;85.20;97644.29;1716885;82;21048;-78
2021/07/12 05:07:39;;;;;;;11.25;10.05;;;;;;;17.85;85.12;97653.91;1732258;82;20997;-78
2021/07/12 05:10:07;;;;;;;12.00;9.85;;;;;;;17.97;85.27;97659.46;1737364;82;20986;-78
2021/07/12 05:12:34;;;;;;;14.78;9.80;;;;;;;18.04;84.58;97659.42;1738188;82;21442;-79
2021/07/12 05:15:01;;;;;;;12.37;9.50;;;;;;;18.11;84.40;97656.77;1738567;82;21565;-80
2021/07/12 05:17:27;;;;;;;13.62;9.50;;;;;;;18.20;84.41;97650.77;1728466;82;20985;-80
2021/07/12 05:19:54;;;;;;;9.75;8.78;;;;;;;18.33;84.37;97655.33;1737849;82;21013;-80
2021/07/12 05:22:25;;;;;;;14.47;9.48;;;;;;;18.43;83.65;97651.05;1710116;82;21021;-80
2021/07/12 05:24:49;;;;;;;13.45;9.28;;;;;;;18.54;82.51;97646.31;1708683;84;21065;-80
2021/07/12 05:27:16;;;;;;;10.95;9.40;;;;;;;18.66;81.71;97649.11;1714877;82;21001;-80
2021/07/12 05:29:42;;;;;;;10.45;9.35;;;;;;;18.76;82.56;97648.86;1711056;83;20997;-81
2021/07/12 05:32:09;;;;;;;13.90;9.98;;;;;;;18.90;81.90;97653.77;1727457;82;20978;-81
2021/07/12 05:34:35;;;;;;;14.53;9.20;;;;;;;19.01;81.85;97651.18;1737916;82;21100;-81
2021/07/12 05:37:02;;;;;;;12.50;9.90;;;;;;;19.10;80.63;97648.38;1737800;82;20958;-81
2021/07/12 05:39:30;;;;;;;14.80;10.28;;;;;;;19.21;80.25;97637.73;1748423;82;21525;-81
2021/07/12 05:41:57;;;;;;;14.40;10.08;;;;;;;19.31;80.27;97641.11;1748548;82;21029;-81
2021/07/12 05:44:23;;;;;;;16.07;11.65;;;;;;;19.39;80.09;97638.75;1742174;82;21068;-80
2021/07/12 05:46:50;;;;;;;13.68;11.15;;;;;;;19.49;79.89;97641.61;1713271;84;21088;-81
2021/07/12 05:49:16;;;;;;;11.15;10.00;;;;;;;19.56;79.97;97646.91;1713489;84;21061;-81
2021/07/12 05:51:43;;;;;;;11.65;9.88;;;;;;;19.64;79.49;97647.72;1713981;82;20983;-80
2021/07/12 05:54:10;;;;;;;11.50;9.25;;;;;;;19.69;78.12;97641.53;1713498;82;20983;-81
2021/07/12 05:56:36;;;;;;;10.72;9.63;;;;;;;19.77;77.97;97635.59;1719017;82;21081;-80
2021/07/12 05:59:03;;;;;;;12.30;9.35;;;;;;;19.83;77.33;97639.16;1715802;84;21403;-81
2021/07/12 06:01:30;;;;;;;10.93;9.88;;;;;;;19.92;77.73;97645.20;1721096;82;20981;-81
2021/07/12 06:03:56;;;;;;;10.48;9.33;;;;;;;20.00;77.84;97639.30;1738159;82;21446;-81
2021/07/12 06:06:23;;;;;;;13.00;10.08;;;;;;;20.08;77.30;97636.50;1742858;82;21411;-81
2021/07/12 06:08:49;;;;;;;12.68;9.23;;;;;;;20.16;77.30;97640.36;1715777;82;20960;-81
2021/07/12 06:11:15;;;;;;;11.97;9.80;;;;;;;20.26;77.00;97639.16;1713602;84;20972;-81
2021/07/12 06:13:41;;;;;;;11.60;9.50;;;;;;;20.36;76.87;97639.81;1713420;84;20947;-80
2021/07/12 06:16:08;;;;;;;11.90;9.90;;;;;;;20.46;76.78;97633.27;1718657;82;20946;-80
2021/07/12 06:18:34;;;;;;;10.90;9.75;;;;;;;20.56;75.39;97632.93;1742215;82;21033;-80
2021/07/12 06:21:01;;;;;;;17.45;10.63;;;;;;;20.66;75.53;97633.06;1742428;82;21558;-80
2021/07/12 06:23:27;;;;;;;13.40;10.05;;;;;;;20.74;75.29;97625.27;1728578;82;21084;-80
2021/07/12 06:25:53;;;;;;;18.00;10.68;;;;;;;20.87;74.96;97632.41;1743059;82;21060;-81
2021/07/12 06:28:20;;;;;;;12.93;10.13;;;;;;;20.97;73.83;97631.58;1742144;82;21009;-81
2021/07/12 06:30:46;;;;;;;13.15;10.15;;;;;;;21.08;72.68;97624.00;1743026;82;20978;-81
2021/07/12 06:33:13;;;;;;;13.03;9.93;;;;;;;21.20;73.76;97624.87;1729474;82;21021;-80
2021/07/12 06:35:39;;;;;;;12.23;9.80;;;;;;;21.31;73.05;97632.11;1735953;82;21526;-81
2021/07/12 06:38:06;;;;;;;16.40;10.23;;;;;;;21.42;73.21;97629.04;1727148;82;21005;-81
2021/07/12 06:40:33;;;;;;;17.30;11.90;;;;;;;21.53;72.61;97622.28;1668137;85;20995;-82
2021/07/12 06:42:59;;;;;;;14.47;10.35;;;;;;;21.65;71.46;97628.52;1666358;85;21010;-81
2021/07/12 06:45:27;;;;;;;10.98;9.25;;;;;;;21.76;72.12;97622.30;1721763;82;21001;-82
2021/07/12 06:47:53;;;;;;;13.70;10.30;;;;;;;21.89;70.78;97622.97;1725740;82;20977;-82
2021/07/12 06:50:22;;;;;;;11.30;9.18;;;;;;;22.02;71.39;97627.38;1727548;82;20973;-81
2021/07/12 06:52:48;;;;;;;20.72;11.18;;;;;;;22.11;70.75;97630.66;1720616;82;20958;-82
2021/07/12 06:55:18;;;;;;;50.03;36.63;;;;;;;22.22;69.72;97625.69;1681150;85;21012;-82
2021/07/12 06:57:45;;;;;;;19.62;12.55;;;;;;;22.32;70.01;97633.02;1714809;83;20981;-80
2021/07/12 07:00:12;;;;;;;17.73;12.18;;;;;;;22.39;69.86;97625.63;1713568;84;21029;-81
2021/07/12 07:02:41;;;;;;;13.50;10.15;;;;;;;22.48;69.41;97627.19;1721009;82;21057;-81
2021/07/12 07:05:09;;;;;;;14.45;9.80;;;;;;;22.57;67.61;97630.49;1728460;82;21041;-82
2021/07/12 07:07:36;;;;;;;14.00;9.83;;;;;;;22.67;69.10;97624.67;1715745;84;21514;-82
2021/07/12 07:10:08;;;;;;;13.55;9.60;;;;;;;22.78;68.84;97623.75;1728294;82;21418;-82
2021/07/12 07:12:36;;;;;;;16.53;10.33;;;;;;;22.89;68.61;97619.27;1714713;82;21032;-81
2021/07/12 07:15:04;;;;;;;17.20;9.50;;;;;;;22.98;67.75;97621.66;1713558;83;21037;-82
2021/07/12 07:17:30;;;;;;;17.32;9.95;;;;;;;23.07;68.03;97623.55;1715627;82;20997;-81
2021/07/12 07:19:57;;;;;;;14.58;10.43;;;;;;;23.15;67.68;97619.70;1742015;82;21001;-81
2021/07/12 07:22:23;;;;;;;14.03;10.20;;;;;;;23.24;67.52;97615.83;1743065;82;21016;-81
2021/07/12 07:24:51;;;;;;;15.53;10.35;;;;;;;23.32;67.35;97617.34;1730581;82;21097;-82
2021/07/12 07:27:19;;;;;;;14.73;10.68;;;;;;;23.42;67.15;97612.02;1723963;82;21012;-84
2021/07/12 07:29:46;;;;;;;19.75;10.80;;;;;;;23.53;66.64;97606.98;1722248;82;21012;-84
2021/07/12 07:32:15;;;;;;;12.93;11.00;;;;;;;23.64;65.94;97613.66;1726471;82;21421;-79
2021/07/12 07:34:42;;;;;;;17.42;10.95;;;;;;;23.70;66.11;97608.17;1725762;82;21060;-78
2021/07/12 07:37:09;;;;;;;18.52;11.38;;;;;;;23.77;65.93;97611.18;1680759;83;21421;-77
2021/07/12 07:39:38;;;;;;;12.82;10.13;;;;;;;23.85;66.08;97612.22;1676395;85;21025;-79
2021/07/12 07:42:06;;;;;;;14.30;10.50;;;;;;;23.93;66.00;97612.88;1672720;85;21040;-79
2021/07/12 07:44:33;;;;;;;17.45;10.95;;;;;;;24.00;65.92;97614.53;1665190;85;21471;-79
2021/07/12 07:47:00;;;;;;;15.95;10.15;;;;;;;24.08;65.27;97616.02;1731770;82;20954;-79
2021/07/12 07:49:27;;;;;;;13.43;9.63;;;;;;;24.17;65.26;97618.42;1750479;82;20977;-79
2021/07/12 07:51:53;;;;;;;16.67;9.98;;;;;;;24.26;64.87;97612.13;1725275;82;21009;-79
2021/07/12 07:54:20;;;;;;;14.38;9.63;;;;;;;24.35;64.07;97613.64;1720683;83;21449;-79
2021/07/12 07:56:47;;;;;;;16.62;9.63;;;;;;;24.42;64.19;97613.44;1720913;83;20974;-79
2021/07/12 07:59:14;;;;;;;11.68;9.93;;;;;;;24.49;64.09;97613.70;1721269;82;20993;-76
2021/07/12 08:01:42;;;;;;;14.18;9.70;;;;;;;24.55;63.58;97614.98;1720491;83;21028;-78
2021/07/12 08:04:08;;;;;;;32.45;27.93;;;;;;;24.60;63.36;97605.44;1729482;82;21056;-81
2021/07/12 08:06:35;;;;;;;13.98;11.05;;;;;;;24.66;62.26;97603.98;1686401;85;21000;-81
2021/07/12 08:09:02;;;;;;;12.53;9.38;;;;;;;24.74;62.41;97608.19;1695913;84;21052;-79
2021/07/12 08:11:31;;;;;;;11.08;8.90;;;;;;;24.79;61.73;97601.83;1733077;82;21019;-79
2021/07/12 08:13:58;;;;;;;11.73;8.95;;;;;;;24.86;60.74;97606.20;1739779;82;21466;-79
2021/07/12 08:16:25;;;;;;;14.87;8.13;;;;;;;25.05;60.27;97605.28;1723115;82;21113;-80
2021/07/12 08:18:51;;;;;;;10.23;8.85;;;;;;;25.05;60.27;97605.28;1727975;82;20977;-80
2021/07/12 08:21:18;;;;;;;9.05;7.35;;;;;;;25.27;57.00;97596.45;1729365;82;21013;-79
2021/07/12 08:23:45;;;;;;;8.78;7.28;;;;;;;25.27;57.00;97596.45;1732640;82;21498;-79
2021/07/12 08:26:13;;;;;;;9.93;8.23;;;;;;;25.38;56.28;97605.39;1720704;83;21016;-77
2021/07/12 08:28:41;;;;;;;9.73;7.33;;;;;;;25.56;56.92;97608.19;1726901;82;21044;-78
2021/07/12 08:31:10;;;;;;;8.90;7.53;;;;;;;25.56;56.92;97608.19;1720878;82;21013;-81
2021/07/12 08:33:36;;;;;;;11.57;6.87;;;;;;;25.69;54.23;97604.63;1716345;83;21390;-82
2021/07/12 08:36:04;;;;;;;15.58;7.87;;;;;;;25.83;49.96;97601.06;1723500;83;20994;-82
2021/07/12 08:38:30;;;;;;;9.68;8.05;;;;;;;25.93;51.62;97602.34;1726216;83;21005;-83
2021/07/12 08:40:57;;;;;;;8.85;7.33;;;;;;;26.03;50.86;97609.91;1726311;82;21017;-84
2021/07/12 08:43:24;;;;;;;7.70;6.90;;;;;;;26.14;50.87;97607.48;1725961;82;20973;-82
2021/07/12 08:45:51;;;;;;;11.12;7.40;;;;;;;26.23;48.39;97608.41;1732868;82;20976;-81
2021/07/12 08:48:18;;;;;;;8.45;7.53;;;;;;;26.31;46.79;97611.25;1727860;82;21084;-80
2021/07/12 08:50:47;;;;;;;9.30;7.35;;;;;;;26.41;49.00;97604.88;1737536;82;21395;-80
2021/07/12 08:53:17;;;;;;;8.63;7.30;;;;;;;26.47;47.46;97604.25;1737553;82;20977;-81
2021/07/12 08:55:45;;;;;;;8.28;6.92;;;;;;;26.55;46.74;97608.89;1734701;82;20949;-79
2021/07/12 08:58:20;;;;;;;9.10;7.20;;;;;;;26.61;47.49;97598.78;1735730;82;21013;-80
2021/07/12 09:00:53;;;;;;;7.45;6.78;;;;;;;26.69;45.31;97593.91;1739306;82;21382;-80
2021/07/12 09:03:24;;;;;;;;;;;;;;;26.77;46.31;97591.23;1728383;83;21064;-80
2021/07/12 09:06:11;;;;;;;7.33;6.58;;;;;;;26.83;48.13;97589.26;1742816;82;20125;-81
2021/07/12 09:08:56;;;;;;;9.18;6.97;;;;;;;26.86;46.03;97590.80;1726062;82;21082;-84
2021/07/12 09:11:43;;;;;;;7.50;6.78;;;;;;;26.95;47.87;97589.02;1726145;83;21016;-83
2021/07/12 09:14:13;;;;;;;9.20;7.22;;;;;;;27.03;48.06;97589.57;1725836;83;21029;-82
2021/07/12 09:16:54;;;;;;;11.73;7.58;;;;;;;27.13;48.72;97590.30;1743529;82;21454;-83
2021/07/12 09:19:35;;;;;;;12.30;7.80;;;;;;;27.19;48.68;97581.49;1738472;82;21068;-83
2021/07/12 09:22:09;;;;;;;7.87;7.12;;;;;;;27.25;48.32;97578.15;1733331;82;21001;-82
2021/07/12 09:25:05;;;;;;;29.87;26.70;;;;;;;27.34;47.47;97582.25;1752602;82;20968;-81
2021/07/12 09:27:26;;;;;;;14.87;12.20;;;;;;;27.39;47.67;97578.53;1721391;82;21398;-81
2021/07/12 09:29:59;;;;;;;8.40;7.50;;;;;;;27.48;47.69;97584.87;1691911;83;21085;-80
2021/07/12 09:32:30;;;;;;;8.60;7.70;;;;;;;27.58;47.63;97584.23;1698800;84;21071;-83
2021/07/12 09:35:05;;;;;;;8.35;7.55;;;;;;;27.68;46.75;97582.75;1667528;84;21033;-84
2021/07/12 09:37:33;;;;;;;7.65;6.92;;;;;;;27.73;46.50;97578.20;1697453;84;21063;-81
2021/07/12 09:40:03;;;;;;;8.63;7.33;;;;;;;27.85;44.46;97571.41;1735505;82;21411;-82
2021/07/12 09:42:31;;;;;;;10.32;7.72;;;;;;;27.97;46.13;97575.20;1728669;82;21495;-82
2021/07/12 09:45:02;;;;;;;8.08;6.87;;;;;;;28.05;45.74;97571.10;1737319;82;21019;-81
2021/07/12 09:47:34;;;;;;;10.93;7.70;;;;;;;28.12;45.29;97569.92;1742403;82;21049;-82
2021/07/12 09:50:12;;;;;;;11.63;7.92;;;;;;;28.18;42.67;97569.24;1748161;82;21068;-83
2021/07/12 09:52:50;;;;;;;7.10;6.40;;;;;;;28.22;43.58;97573.87;1718211;82;21030;-81
2021/07/12 09:55:34;;;;;;;8.05;6.78;;;;;;;28.28;43.36;97567.23;1732397;82;21045;-84
2021/07/12 09:58:17;;;;;;;10.20;7.20;;;;;;;28.38;43.35;97564.36;1703058;82;21064;-81
2021/07/12 10:00:56;;;;;;;7.60;6.70;;;;;;;28.46;42.83;97556.19;1730577;82;21478;-83
2021/07/12 10:03:27;;;;;;;8.73;6.58;;;;;;;28.56;43.28;97557.37;1748110;82;21057;-80
2021/07/12 10:05:57;;;;;;;8.60;6.92;;;;;;;28.63;43.07;97550.72;1748121;82;21080;-80
2021/07/12 10:08:24;;;;;;;8.08;6.80;;;;;;;28.65;42.44;97550.02;1748173;82;21434;-78
2021/07/12 10:10:51;;;;;;;9.50;8.45;;;;;;;28.69;42.44;97549.19;1735898;82;21052;-81
2021/07/12 10:13:22;;;;;;;22.37;20.08;;;;;;;28.74;40.79;97550.88;1730796;82;21400;-84
2021/07/12 10:15:50;;;;;;;11.25;8.50;;;;;;;28.80;40.93;97550.69;1686693;82;21005;-83
2021/07/12 10:18:21;;;;;;;12.58;7.90;;;;;;;28.89;41.52;97558.39;1727183;82;21012;-82
2021/07/12 10:20:51;;;;;;;7.87;7.08;;;;;;;28.97;41.72;97555.13;1736029;82;21083;-83
2021/07/12 10:23:20;;;;;;;7.53;6.83;;;;;;;29.09;42.12;97553.38;1723769;82;21118;-79
2021/07/12 10:25:48;;;;;;;7.40;6.60;;;;;;;29.22;41.71;97554.19;1724059;82;21024;-77
2021/07/12 10:28:15;;;;;;;7.85;6.95;;;;;;;29.33;40.25;97557.92;1710572;82;21428;-78
2021/07/12 10:30:48;;;;;;;8.50;6.75;;;;;;;29.37;40.83;97556.55;1720096;82;21022;-78
2021/07/12 10:33:18;;;;;;;8.23;6.65;;;;;;;29.45;39.99;97554.79;1718121;83;20979;-82
2021/07/12 10:35:54;;;;;;;10.13;6.35;;;;;;;29.47;39.75;97552.75;1717426;83;21065;-77
2021/07/12 10:38:48;;;;;;;7.47;5.92;;;;;;;29.53;39.85;97558.89;1713390;84;21413;-76
2021/07/12 10:41:28;;;;;;;10.03;6.10;;;;;;;29.64;39.64;97551.66;1712192;83;21021;-77
2021/07/12 10:44:03;;;;;;;10.10;6.62;;;;;;;29.79;39.31;97554.99;1713944;82;21021;-77
2021/07/12 10:46:37;;;;;;;8.40;6.28;;;;;;;29.99;39.35;97554.53;1714376;82;20991;-76
2021/07/12 10:49:25;;;;;;;7.55;6.70;;;;;;;30.25;37.91;97546.52;1716455;82;21014;-77
2021/07/12 10:51:52;;;;;;;10.93;6.45;;;;;;;31.16;38.93;97532.00;1717637;82;21017;-77
2021/07/12 10:54:20;;;;;;;6.78;6.17;;;;;;;32.32;36.53;97521.86;1722747;82;21037;-76
2021/07/12 10:56:57;;;;;;;6.33;5.78;;;;;;;33.22;35.46;97518.56;1746054;82;21047;-77
2021/07/12 10:59:38;;;;;;;6.85;5.92;;;;;;;34.07;34.27;97516.05;1721170;82;20981;-77
2021/07/12 11:02:19;;;;;;;10.43;6.53;;;;;;;34.93;30.06;97515.95;1714002;82;21019;-77
2021/07/12 11:04:51;;;;;;;7.65;6.35;;;;;;;35.46;29.20;97519.13;1735952;82;21501;-81
2021/07/12 11:07:45;;;;;;;7.70;6.62;;;;;;;36.37;30.38;97516.85;1735294;83;21411;-82
2021/07/12 11:10:27;;;;;;;9.53;6.30;;;;;;;37.07;29.90;97518.25;1735418;83;20954;-81
2021/07/12 11:13:03;;;;;;;6.57;5.70;;;;;;;37.72;27.66;97508.59;1735568;83;21018;-80
2021/07/12 11:15:36;;;;;;;7.10;6.15;;;;;;;38.14;26.50;97512.48;1735835;82;20978;-80
2021/07/12 11:18:10;;;;;;;6.60;5.80;;;;;;;38.46;26.33;97509.42;1733455;82;21435;-81
2021/07/12 11:20:58;;;;;;;7.60;5.62;;;;;;;38.88;25.31;97509.90;1738259;82;21100;-80
2021/07/12 11:23:46;;;;;;;7.95;6.30;;;;;;;39.15;25.59;97506.63;1651346;87;21019;-84
2021/07/12 11:26:27;;;;;;;11.12;5.65;;;;;;;39.61;24.25;97503.19;1678068;85;21006;-82
2021/07/12 11:28:59;;;;;;;7.53;6.40;;;;;;;39.80;24.13;97491.34;1682134;85;20982;-81
2021/07/12 11:31:57;;;;;;;7.65;6.45;;;;;;;39.99;24.04;97488.40;1742034;82;21443;-81
2021/07/12 11:34:32;;;;;;;8.45;6.80;;;;;;;40.30;22.62;97486.15;1737841;82;21012;-81
2021/07/12 11:37:15;;;;;;;7.00;6.35;;;;;;;40.32;22.63;97484.52;1717629;83;21052;-81
2021/07/12 11:39:50;;;;;;;9.73;6.17;;;;;;;40.54;22.28;97483.80;1721278;83;21089;-81
2021/07/12 11:42:28;;;;;;;6.95;6.40;;;;;;;40.60;21.18;97481.39;1725376;82;21097;-81